sensor_id;sensor_type;location;lat;lon;timestamp;temperature;humidity
4518;DHT22;2271;49.464;11.070;2023-07-20T00:00:52;21.40;99.90
4518;DHT22;2271;49.464;11.070;2023-07-20T00:03:20;21.50;99.90
4518;DHT22;2271;49.464;11.070;2023-07-20T00:05:51;21.40;99.90
4518;DHT22;2271;49.464;11.070;2023-07-20T00:08:17;21.40;99.90
4518;DHT22;2271;49.464;11.070;2023-07-20T00:10:43;21.40;99.90
4518;DHT22;2271;49.464;11.070;2023-07-20T00:13:10;21.40;99.90
4518;DHT22;2271;49.464;11.070;2023-07-20T00:15:36;21.40;99.90
4518;DHT22;2271;49.464;11.070;2023-07-20T00:18:03;21.40;99.90
4518;DHT22;2271;49.464;11.070;2023-07-20T00:20:29;21.40;99.90
4518;DHT22;2271;49.464;11.070;2023-07-20T00:22:54;21.40;99.90
4518;DHT22;2271;49.464;11.070;2023-07-20T00:25:20;21.40;99.90
4518;DHT22;2271;49.464;11.070;2023-07-20T00:27:46;21.40;99.90
4518;DHT22;2271;49.464;11.070;2023-07-20T00:30:12;21.40;99.90
4518;DHT22;2271;49.464;11.070;2023-07-20T00:32:38;21.40;99.90
4518;DHT22;2271;49.464;11.070;2023-07-20T00:35:04;21.30;99.90
4518;DHT22;2271;49.464;11.070;2023-07-20T00:37:29;21.30;99.90
4518;DHT22;2271;49.464;11.070;2023-07-20T00:39:56;21.30;99.90
4518;DHT22;2271;49.464;11.070;2023-07-20T00:42:22;21.30;99.90
4518;DHT22;2271;49.464;11.070;2023-07-20T00:44:48;21.30;99.90
4518;DHT22;2271;49.464;11.070;2023-07-20T00:47:13;21.10;99.90
4518;DHT22;2271;49.464;11.070;2023-07-20T00:49:39;21.00;99.90
4518;DHT22;2271;49.464;11.070;2023-07-20T00:52:06;21.00;99.90
4518;DHT22;2271;49.464;11.070;2023-07-20T00:54:33;21.10;99.90
4518;DHT22;2271;49.464;11.070;2023-07-20T00:57:01;21.10;99.90
4518;DHT22;2271;49.464;11.070;2023-07-20T00:59:27;21.20;99.90
4518;DHT22;2271;49.464;11.070;2023-07-20T01:01:53;21.20;99.90
4518;DHT22;2271;49.464;11.070;2023-07-20T01:04:19;21.20;99.90
4518;DHT22;2271;49.464;11.070;2023-07-20T01:06:51;21.20;99.90
4518;DHT22;2271;49.464;11.070;2023-07-20T01:09:31;21.20;99.90
4518;DHT22;2271;49.464;11.070;2023-07-20T01:14:29;21.20;99.90
4518;DHT22;2271;49.464;11.070;2023-07-20T01:16:57;21.30;99.90
4518;DHT22;2271;49.464;11.070;2023-07-20T01:19:22;21.20;99.90
4518;DHT22;2271;49.464;11.070;2023-07-20T01:27:26;21.30;99.90
4518;DHT22;2271;49.464;11.070;2023-07-20T01:32:42;21.20;99.90
4518;DHT22;2271;49.464;11.070;2023-07-20T01:35:12;21.10;99.90
4518;DHT22;2271;49.464;11.070;2023-07-20T01:37:46;21.10;99.90
4518;DHT22;2271;49.464;11.070;2023-07-20T01:40:14;21.00;99.90
4518;DHT22;2271;49.464;11.070;2023-07-20T01:42:44;21.00;99.90
4518;DHT22;2271;49.464;11.070;2023-07-20T01:45:11;21.00;99.90
4518;DHT22;2271;49.464;11.070;2023-07-20T01:47:37;21.00;99.90
4518;DHT22;2271;49.464;11.070;2023-07-20T01:50:02;21.00;99.90
4518;DHT22;2271;49.464;11.070;2023-07-20T01:52:28;21.00;99.90
4518;DHT22;2271;49.464;11.070;2023-07-20T01:54:54;21.00;99.90
4518;DHT22;2271;49.464;11.070;2023-07-20T01:57:19;21.00;99.90
4518;DHT22;2271;49.464;11.070;2023-07-20T01:59:45;21.00;99.90
4518;DHT22;2271;49.464;11.070;2023-07-20T02:02:11;21.00;99.90
4518;DHT22;2271;49.464;11.070;2023-07-20T02:04:37;21.00;99.90
4518;DHT22;2271;49.464;11.070;2023-07-20T02:07:02;21.00;99.90
4518;DHT22;2271;49.464;11.070;2023-07-20T02:09:28;21.00;99.90
4518;DHT22;2271;49.464;11.070;2023-07-20T02:11:54;21.00;99.90
4518;DHT22;2271;49.464;11.070;2023-07-20T02:14:19;21.00;99.90
4518;DHT22;2271;49.464;11.070;2023-07-20T02:16:45;21.00;99.90
4518;DHT22;2271;49.464;11.070;2023-07-20T02:19:11;21.00;99.90
4518;DHT22;2271;49.464;11.070;2023-07-20T02:21:36;21.00;99.90
4518;DHT22;2271;49.464;11.070;2023-07-20T02:24:02;21.00;99.90
4518;DHT22;2271;49.464;11.070;2023-07-20T02:26:28;21.00;99.90
4518;DHT22;2271;49.464;11.070;2023-07-20T02:28:53;21.00;99.90
4518;DHT22;2271;49.464;11.070;2023-07-20T02:31:19;21.00;99.90
4518;DHT22;2271;49.464;11.070;2023-07-20T02:33:44;21.00;99.90
4518;DHT22;2271;49.464;11.070;2023-07-20T02:36:10;21.00;99.90
4518;DHT22;2271;49.464;11.070;2023-07-20T02:38:36;21.00;99.90
4518;DHT22;2271;49.464;11.070;2023-07-20T02:41:01;21.00;99.90
4518;DHT22;2271;49.464;11.070;2023-07-20T02:43:28;20.90;99.90
4518;DHT22;2271;49.464;11.070;2023-07-20T02:45:53;20.90;99.90
4518;DHT22;2271;49.464;11.070;2023-07-20T02:48:19;20.90;99.90
4518;DHT22;2271;49.464;11.070;2023-07-20T02:50:45;20.80;99.90
4518;DHT22;2271;49.464;11.070;2023-07-20T02:53:10;20.90;99.90
4518;DHT22;2271;49.464;11.070;2023-07-20T02:55:36;20.90;99.90
4518;DHT22;2271;49.464;11.070;2023-07-20T02:58:01;21.00;99.90
4518;DHT22;2271;49.464;11.070;2023-07-20T03:00:27;21.00;99.90
4518;DHT22;2271;49.464;11.070;2023-07-20T03:02:53;21.00;99.90
4518;DHT22;2271;49.464;11.070;2023-07-20T03:05:21;21.00;99.90
4518;DHT22;2271;49.464;11.070;2023-07-20T03:07:51;21.00;99.90
4518;DHT22;2271;49.464;11.070;2023-07-20T03:10:17;21.00;99.90
4518;DHT22;2271;49.464;11.070;2023-07-20T03:12:42;21.00;99.90
4518;DHT22;2271;49.464;11.070;2023-07-20T03:15:08;21.00;99.90
4518;DHT22;2271;49.464;11.070;2023-07-20T03:17:34;20.90;99.90
4518;DHT22;2271;49.464;11.070;2023-07-20T03:20:00;20.90;99.90
4518;DHT22;2271;49.464;11.070;2023-07-20T03:22:26;20.80;99.90
4518;DHT22;2271;49.464;11.070;2023-07-20T03:24:52;20.80;99.90
4518;DHT22;2271;49.464;11.070;2023-07-20T03:27:18;20.80;99.90
4518;DHT22;2271;49.464;11.070;2023-07-20T03:29:44;20.80;99.90
4518;DHT22;2271;49.464;11.070;2023-07-20T03:32:10;20.80;99.90
4518;DHT22;2271;49.464;11.070;2023-07-20T03:34:36;21.40;99.90
4518;DHT22;2271;49.464;11.070;2023-07-20T03:37:02;22.10;99.90
4518;DHT22;2271;49.464;11.070;2023-07-20T03:39:30;22.60;99.90
4518;DHT22;2271;49.464;11.070;2023-07-20T03:41:55;22.70;99.90
4518;DHT22;2271;49.464;11.070;2023-07-20T03:44:22;22.80;99.90
4518;DHT22;2271;49.464;11.070;2023-07-20T03:46:48;23.00;99.90
4518;DHT22;2271;49.464;11.070;2023-07-20T03:49:13;23.00;99.90
4518;DHT22;2271;49.464;11.070;2023-07-20T03:51:39;23.10;99.90
4518;DHT22;2271;49.464;11.070;2023-07-20T03:54:05;23.10;99.90
4518;DHT22;2271;49.464;11.070;2023-07-20T03:56:30;23.20;99.90
4518;DHT22;2271;49.464;11.070;2023-07-20T03:58:59;23.20;99.90
4518;DHT22;2271;49.464;11.070;2023-07-20T04:01:25;23.20;99.90
4518;DHT22;2271;49.464;11.070;2023-07-20T04:03:51;22.80;99.90
4518;DHT22;2271;49.464;11.070;2023-07-20T04:06:17;22.90;99.90
4518;DHT22;2271;49.464;11.070;2023-07-20T04:08:44;23.00;99.90
4518;DHT22;2271;49.464;11.070;2023-07-20T04:11:09;23.20;99.90
4518;DHT22;2271;49.464;11.070;2023-07-20T04:13:35;23.20;99.90
4518;DHT22;2271;49.464;11.070;2023-07-20T04:16:00;23.10;99.90
4518;DHT22;2271;49.464;11.070;2023-07-20T04:18:26;23.10;99.90
4518;DHT22;2271;49.464;11.070;2023-07-20T04:20:52;23.10;99.90
4518;DHT22;2271;49.464;11.070;2023-07-20T04:23:18;23.10;99.90
4518;DHT22;2271;49.464;11.070;2023-07-20T04:25:43;22.60;99.90
4518;DHT22;2271;49.464;11.070;2023-07-20T04:28:09;22.30;99.90
4518;DHT22;2271;49.464;11.070;2023-07-20T04:30:38;22.00;99.90
4518;DHT22;2271;49.464;11.070;2023-07-20T04:33:05;21.80;99.90
4518;DHT22;2271;49.464;11.070;2023-07-20T04:35:51;21.70;99.90
4518;DHT22;2271;49.464;11.070;2023-07-20T04:38:17;21.70;99.90
4518;DHT22;2271;49.464;11.070;2023-07-20T04:40:47;21.60;99.90
4518;DHT22;2271;49.464;11.070;2023-07-20T04:43:13;21.60;99.90
4518;DHT22;2271;49.464;11.070;2023-07-20T04:45:39;21.50;99.90
4518;DHT22;2271;49.464;11.070;2023-07-20T04:48:13;21.50;99.90
4518;DHT22;2271;49.464;11.070;2023-07-20T04:50:41;21.40;99.90
4518;DHT22;2271;49.464;11.070;2023-07-20T04:53:07;21.40;99.90
4518;DHT22;2271;49.464;11.070;2023-07-20T04:55:32;21.50;99.90
4518;DHT22;2271;49.464;11.070;2023-07-20T04:58:02;21.40;99.90
4518;DHT22;2271;49.464;11.070;2023-07-20T05:00:29;21.40;99.90
4518;DHT22;2271;49.464;11.070;2023-07-20T05:02:55;21.40;99.90
4518;DHT22;2271;49.464;11.070;2023-07-20T05:05:21;21.30;99.90
4518;DHT22;2271;49.464;11.070;2023-07-20T05:07:47;21.30;99.90
4518;DHT22;2271;49.464;11.070;2023-07-20T05:10:13;21.30;99.90
4518;DHT22;2271;49.464;11.070;2023-07-20T05:12:38;21.50;99.90
4518;DHT22;2271;49.464;11.070;2023-07-20T05:15:04;21.50;99.90
4518;DHT22;2271;49.464;11.070;2023-07-20T05:17:30;21.60;99.90
4518;DHT22;2271;49.464;11.070;2023-07-20T05:19:56;21.60;99.90
4518;DHT22;2271;49.464;11.070;2023-07-20T05:22:21;21.70;99.90
4518;DHT22;2271;49.464;11.070;2023-07-20T05:24:47;21.60;99.90
4518;DHT22;2271;49.464;11.070;2023-07-20T05:27:12;21.60;99.90
4518;DHT22;2271;49.464;11.070;2023-07-20T05:29:44;21.60;99.90
4518;DHT22;2271;49.464;11.070;2023-07-20T05:32:09;21.60;99.90
4518;DHT22;2271;49.464;11.070;2023-07-20T05:34:35;21.50;99.90
4518;DHT22;2271;49.464;11.070;2023-07-20T05:37:01;21.50;99.90
4518;DHT22;2271;49.464;11.070;2023-07-20T05:39:26;21.50;99.90
4518;DHT22;2271;49.464;11.070;2023-07-20T05:41:52;21.50;99.90
4518;DHT22;2271;49.464;11.070;2023-07-20T05:44:17;21.50;99.90
4518;DHT22;2271;49.464;11.070;2023-07-20T05:46:43;21.50;99.90
4518;DHT22;2271;49.464;11.070;2023-07-20T05:49:08;21.60;99.90
4518;DHT22;2271;49.464;11.070;2023-07-20T05:51:35;21.60;99.90
4518;DHT22;2271;49.464;11.070;2023-07-20T05:54:00;21.70;99.90
4518;DHT22;2271;49.464;11.070;2023-07-20T05:56:26;21.70;99.90
4518;DHT22;2271;49.464;11.070;2023-07-20T05:58:52;21.90;99.90
4518;DHT22;2271;49.464;11.070;2023-07-20T06:01:17;22.20;99.90
4518;DHT22;2271;49.464;11.070;2023-07-20T06:03:44;22.50;99.90
4518;DHT22;2271;49.464;11.070;2023-07-20T06:06:10;22.50;99.90
4518;DHT22;2271;49.464;11.070;2023-07-20T06:08:37;22.50;99.90
4518;DHT22;2271;49.464;11.070;2023-07-20T06:11:03;22.50;99.90
4518;DHT22;2271;49.464;11.070;2023-07-20T06:13:29;22.60;99.90
4518;DHT22;2271;49.464;11.070;2023-07-20T06:15:55;22.80;99.90
4518;DHT22;2271;49.464;11.070;2023-07-20T06:18:22;23.00;99.90
4518;DHT22;2271;49.464;11.070;2023-07-20T06:20:49;23.10;99.90
4518;DHT22;2271;49.464;11.070;2023-07-20T06:23:16;23.10;99.90
4518;DHT22;2271;49.464;11.070;2023-07-20T06:25:41;23.30;99.90
4518;DHT22;2271;49.464;11.070;2023-07-20T06:28:07;23.40;99.90
4518;DHT22;2271;49.464;11.070;2023-07-20T06:30:34;23.50;99.90
4518;DHT22;2271;49.464;11.070;2023-07-20T06:33:00;23.50;99.90
4518;DHT22;2271;49.464;11.070;2023-07-20T06:35:25;23.60;99.90
4518;DHT22;2271;49.464;11.070;2023-07-20T06:37:51;23.70;99.90
4518;DHT22;2271;49.464;11.070;2023-07-20T06:40:17;23.80;99.90
4518;DHT22;2271;49.464;11.070;2023-07-20T06:42:43;24.00;99.90
4518;DHT22;2271;49.464;11.070;2023-07-20T06:45:09;24.10;99.90
4518;DHT22;2271;49.464;11.070;2023-07-20T06:47:38;24.40;99.90
4518;DHT22;2271;49.464;11.070;2023-07-20T06:50:04;24.50;99.90
4518;DHT22;2271;49.464;11.070;2023-07-20T06:52:29;24.60;99.90
4518;DHT22;2271;49.464;11.070;2023-07-20T06:54:55;24.60;99.90
4518;DHT22;2271;49.464;11.070;2023-07-20T06:57:21;24.50;99.90
4518;DHT22;2271;49.464;11.070;2023-07-20T06:59:46;24.40;99.90
4518;DHT22;2271;49.464;11.070;2023-07-20T07:02:12;24.50;99.90
4518;DHT22;2271;49.464;11.070;2023-07-20T07:04:38;24.60;99.90
4518;DHT22;2271;49.464;11.070;2023-07-20T07:07:04;24.80;99.90
4518;DHT22;2271;49.464;11.070;2023-07-20T07:09:29;25.00;99.90
4518;DHT22;2271;49.464;11.070;2023-07-20T07:11:55;24.90;99.90
4518;DHT22;2271;49.464;11.070;2023-07-20T07:14:20;25.00;99.90
4518;DHT22;2271;49.464;11.070;2023-07-20T07:16:47;24.90;99.90
4518;DHT22;2271;49.464;11.070;2023-07-20T07:19:13;24.70;99.90
4518;DHT22;2271;49.464;11.070;2023-07-20T07:21:39;24.90;99.90
4518;DHT22;2271;49.464;11.070;2023-07-20T07:24:05;25.10;99.90
4518;DHT22;2271;49.464;11.070;2023-07-20T07:26:32;25.20;99.90
4518;DHT22;2271;49.464;11.070;2023-07-20T07:28:58;25.30;99.90
4518;DHT22;2271;49.464;11.070;2023-07-20T07:31:25;25.20;99.90
4518;DHT22;2271;49.464;11.070;2023-07-20T07:33:51;25.00;99.90
4518;DHT22;2271;49.464;11.070;2023-07-20T07:36:16;24.80;99.90
4518;DHT22;2271;49.464;11.070;2023-07-20T07:38:42;24.70;99.90
4518;DHT22;2271;49.464;11.070;2023-07-20T07:41:08;24.80;99.90
4518;DHT22;2271;49.464;11.070;2023-07-20T07:43:34;24.90;99.90
4518;DHT22;2271;49.464;11.070;2023-07-20T07:46:00;25.00;99.90
4518;DHT22;2271;49.464;11.070;2023-07-20T07:48:27;24.80;99.90
4518;DHT22;2271;49.464;11.070;2023-07-20T07:50:54;24.80;99.90
4518;DHT22;2271;49.464;11.070;2023-07-20T07:53:19;24.80;99.90
4518;DHT22;2271;49.464;11.070;2023-07-20T07:55:49;24.60;99.90
4518;DHT22;2271;49.464;11.070;2023-07-20T07:58:14;24.40;99.90
4518;DHT22;2271;49.464;11.070;2023-07-20T08:00:40;24.60;99.90
4518;DHT22;2271;49.464;11.070;2023-07-20T08:03:08;25.10;99.90
4518;DHT22;2271;49.464;11.070;2023-07-20T08:05:34;25.40;99.90
4518;DHT22;2271;49.464;11.070;2023-07-20T08:08:03;25.10;99.90
4518;DHT22;2271;49.464;11.070;2023-07-20T08:10:31;25.00;99.90
4518;DHT22;2271;49.464;11.070;2023-07-20T08:12:57;25.30;99.90
4518;DHT22;2271;49.464;11.070;2023-07-20T08:15:23;25.60;99.90
4518;DHT22;2271;49.464;11.070;2023-07-20T08:17:48;25.70;99.90
4518;DHT22;2271;49.464;11.070;2023-07-20T08:20:17;25.90;99.90
4518;DHT22;2271;49.464;11.070;2023-07-20T08:22:43;26.10;99.90
4518;DHT22;2271;49.464;11.070;2023-07-20T08:25:09;25.90;99.90
4518;DHT22;2271;49.464;11.070;2023-07-20T08:27:35;25.60;99.90
4518;DHT22;2271;49.464;11.070;2023-07-20T08:30:00;25.20;99.90
4518;DHT22;2271;49.464;11.070;2023-07-20T08:32:26;24.90;99.90
4518;DHT22;2271;49.464;11.070;2023-07-20T08:34:52;24.90;99.90
4518;DHT22;2271;49.464;11.070;2023-07-20T08:37:18;25.10;99.90
4518;DHT22;2271;49.464;11.070;2023-07-20T08:39:43;25.40;99.90
4518;DHT22;2271;49.464;11.070;2023-07-20T08:42:09;25.40;99.90
4518;DHT22;2271;49.464;11.070;2023-07-20T08:44:37;25.40;99.90
4518;DHT22;2271;49.464;11.070;2023-07-20T08:47:04;25.50;99.90
4518;DHT22;2271;49.464;11.070;2023-07-20T08:49:34;25.20;99.90
4518;DHT22;2271;49.464;11.070;2023-07-20T08:52:00;25.40;99.90
4518;DHT22;2271;49.464;11.070;2023-07-20T08:54:30;25.60;99.90
4518;DHT22;2271;49.464;11.070;2023-07-20T08:57:01;26.00;99.90
4518;DHT22;2271;49.464;11.070;2023-07-20T08:59:29;26.00;99.90
4518;DHT22;2271;49.464;11.070;2023-07-20T09:01:56;25.90;99.90
4518;DHT22;2271;49.464;11.070;2023-07-20T09:04:23;26.00;99.90
4518;DHT22;2271;49.464;11.070;2023-07-20T09:06:49;26.10;99.90
4518;DHT22;2271;49.464;11.070;2023-07-20T09:09:15;26.40;99.90
4518;DHT22;2271;49.464;11.070;2023-07-20T09:11:41;26.30;99.90
4518;DHT22;2271;49.464;11.070;2023-07-20T09:14:08;26.20;99.90
4518;DHT22;2271;49.464;11.070;2023-07-20T09:16:55;26.00;99.90
4518;DHT22;2271;49.464;11.070;2023-07-20T09:19:21;25.60;99.90
4518;DHT22;2271;49.464;11.070;2023-07-20T09:21:52;25.60;99.90
4518;DHT22;2271;49.464;11.070;2023-07-20T09:24:19;26.00;99.90
4518;DHT22;2271;49.464;11.070;2023-07-20T09:26:45;26.20;99.90
4518;DHT22;2271;49.464;11.070;2023-07-20T09:29:13;26.30;99.90
4518;DHT22;2271;49.464;11.070;2023-07-20T09:31:39;26.20;99.90
4518;DHT22;2271;49.464;11.070;2023-07-20T09:34:08;26.00;99.90
4518;DHT22;2271;49.464;11.070;2023-07-20T09:36:35;26.20;99.90
4518;DHT22;2271;49.464;11.070;2023-07-20T09:39:03;26.30;99.90
4518;DHT22;2271;49.464;11.070;2023-07-20T09:41:29;26.40;99.90
4518;DHT22;2271;49.464;11.070;2023-07-20T09:43:55;26.70;99.90
4518;DHT22;2271;49.464;11.070;2023-07-20T09:46:21;26.90;99.90
4518;DHT22;2271;49.464;11.070;2023-07-20T09:48:53;27.10;99.90
4518;DHT22;2271;49.464;11.070;2023-07-20T09:51:22;27.10;99.90
4518;DHT22;2271;49.464;11.070;2023-07-20T09:53:49;27.00;99.90
4518;DHT22;2271;49.464;11.070;2023-07-20T09:56:17;26.80;99.90
4518;DHT22;2271;49.464;11.070;2023-07-20T09:58:45;26.40;99.90
4518;DHT22;2271;49.464;11.070;2023-07-20T10:01:12;26.00;99.90
4518;DHT22;2271;49.464;11.070;2023-07-20T10:03:41;26.10;99.90
4518;DHT22;2271;49.464;11.070;2023-07-20T10:06:14;26.30;99.90
4518;DHT22;2271;49.464;11.070;2023-07-20T10:08:41;26.40;99.90
4518;DHT22;2271;49.464;11.070;2023-07-20T10:11:08;26.60;99.90
4518;DHT22;2271;49.464;11.070;2023-07-20T10:13:38;26.80;99.90
4518;DHT22;2271;49.464;11.070;2023-07-20T10:16:10;27.10;99.90
4518;DHT22;2271;49.464;11.070;2023-07-20T10:21:17;27.50;99.90
4518;DHT22;2271;49.464;11.070;2023-07-20T10:23:42;27.60;99.90
4518;DHT22;2271;49.464;11.070;2023-07-20T10:26:09;27.50;99.50
4518;DHT22;2271;49.464;11.070;2023-07-20T10:28:36;27.50;99.60
4518;DHT22;2271;49.464;11.070;2023-07-20T10:31:02;27.60;99.80
4518;DHT22;2271;49.464;11.070;2023-07-20T10:33:28;27.60;99.20
4518;DHT22;2271;49.464;11.070;2023-07-20T10:36:01;27.60;99.60
4518;DHT22;2271;49.464;11.070;2023-07-20T10:38:52;27.50;98.70
4518;DHT22;2271;49.464;11.070;2023-07-20T10:41:21;27.40;98.80
4518;DHT22;2271;49.464;11.070;2023-07-20T10:43:48;27.40;98.20
4518;DHT22;2271;49.464;11.070;2023-07-20T10:46:14;27.60;98.00
4518;DHT22;2271;49.464;11.070;2023-07-20T10:49:07;27.70;98.10
4518;DHT22;2271;49.464;11.070;2023-07-20T10:51:47;27.90;96.70
4518;DHT22;2271;49.464;11.070;2023-07-20T10:56:43;28.20;96.50
4518;DHT22;2271;49.464;11.070;2023-07-20T11:01:59;28.00;94.50
4518;DHT22;2271;49.464;11.070;2023-07-20T11:04:44;27.80;95.80
4518;DHT22;2271;49.464;11.070;2023-07-20T11:07:09;27.60;95.40
4518;DHT22;2271;49.464;11.070;2023-07-20T11:09:36;27.50;94.30
4518;DHT22;2271;49.464;11.070;2023-07-20T11:12:13;27.70;92.40
4518;DHT22;2271;49.464;11.070;2023-07-20T11:15:03;27.60;92.80
4518;DHT22;2271;49.464;11.070;2023-07-20T11:17:30;27.80;93.50
4518;DHT22;2271;49.464;11.070;2023-07-20T11:19:57;27.90;92.90
4518;DHT22;2271;49.464;11.070;2023-07-20T11:22:23;28.00;92.30
4518;DHT22;2271;49.464;11.070;2023-07-20T11:24:49;28.10;91.70
4518;DHT22;2271;49.464;11.070;2023-07-20T11:27:15;28.20;90.70
4518;DHT22;2271;49.464;11.070;2023-07-20T11:29:41;28.30;90.80
4518;DHT22;2271;49.464;11.070;2023-07-20T11:32:07;28.10;90.00
4518;DHT22;2271;49.464;11.070;2023-07-20T11:34:34;27.90;90.20
4518;DHT22;2271;49.464;11.070;2023-07-20T11:37:00;27.60;91.70
4518;DHT22;2271;49.464;11.070;2023-07-20T11:39:26;27.50;92.50
4518;DHT22;2271;49.464;11.070;2023-07-20T11:41:54;27.50;92.50
4518;DHT22;2271;49.464;11.070;2023-07-20T11:44:27;27.60;92.50
4518;DHT22;2271;49.464;11.070;2023-07-20T11:47:10;27.80;92.30
4518;DHT22;2271;49.464;11.070;2023-07-20T11:49:39;27.90;91.30
4518;DHT22;2271;49.464;11.070;2023-07-20T11:52:13;28.10;90.90
4518;DHT22;2271;49.464;11.070;2023-07-20T11:54:41;28.20;90.90
4518;DHT22;2271;49.464;11.070;2023-07-20T11:57:07;28.30;90.80
4518;DHT22;2271;49.464;11.070;2023-07-20T11:59:33;28.40;88.40
4518;DHT22;2271;49.464;11.070;2023-07-20T12:02:02;28.30;87.50
4518;DHT22;2271;49.464;11.070;2023-07-20T12:04:31;28.30;87.40
4518;DHT22;2271;49.464;11.070;2023-07-20T12:06:58;28.20;86.80
4518;DHT22;2271;49.464;11.070;2023-07-20T12:09:24;28.30;85.90
4518;DHT22;2271;49.464;11.070;2023-07-20T12:11:50;28.20;83.80
4518;DHT22;2271;49.464;11.070;2023-07-20T12:14:16;28.30;83.70
4518;DHT22;2271;49.464;11.070;2023-07-20T12:16:42;28.30;83.60
4518;DHT22;2271;49.464;11.070;2023-07-20T12:19:13;28.30;83.70
4518;DHT22;2271;49.464;11.070;2023-07-20T12:21:41;28.30;83.70
4518;DHT22;2271;49.464;11.070;2023-07-20T12:24:08;28.40;80.80
4518;DHT22;2271;49.464;11.070;2023-07-20T12:26:37;28.30;81.50
4518;DHT22;2271;49.464;11.070;2023-07-20T12:29:03;28.30;80.00
4518;DHT22;2271;49.464;11.070;2023-07-20T12:31:29;28.30;81.30
4518;DHT22;2271;49.464;11.070;2023-07-20T12:33:57;28.20;78.30
4518;DHT22;2271;49.464;11.070;2023-07-20T12:36:23;28.00;75.00
4518;DHT22;2271;49.464;11.070;2023-07-20T12:38:50;28.00;76.50
4518;DHT22;2271;49.464;11.070;2023-07-20T12:41:16;28.10;77.20
4518;DHT22;2271;49.464;11.070;2023-07-20T12:43:42;28.10;79.30
4518;DHT22;2271;49.464;11.070;2023-07-20T12:46:08;28.20;78.60
4518;DHT22;2271;49.464;11.070;2023-07-20T12:48:35;28.30;78.60
4518;DHT22;2271;49.464;11.070;2023-07-20T12:51:07;28.30;78.80
4518;DHT22;2271;49.464;11.070;2023-07-20T12:53:33;28.30;80.60
4518;DHT22;2271;49.464;11.070;2023-07-20T12:56:00;28.50;81.50
4518;DHT22;2271;49.464;11.070;2023-07-20T12:58:26;28.60;78.20
4518;DHT22;2271;49.464;11.070;2023-07-20T13:00:51;28.60;76.30
4518;DHT22;2271;49.464;11.070;2023-07-20T13:03:17;28.50;78.40
4518;DHT22;2271;49.464;11.070;2023-07-20T13:05:46;28.40;83.70
4518;DHT22;2271;49.464;11.070;2023-07-20T13:08:12;28.30;85.20
4518;DHT22;2271;49.464;11.070;2023-07-20T13:10:38;28.10;86.20
4518;DHT22;2271;49.464;11.070;2023-07-20T13:13:04;27.80;85.40
4518;DHT22;2271;49.464;11.070;2023-07-20T13:15:31;28.00;87.10
4518;DHT22;2271;49.464;11.070;2023-07-20T13:17:59;28.10;86.20
4518;DHT22;2271;49.464;11.070;2023-07-20T13:20:26;28.10;86.90
4518;DHT22;2271;49.464;11.070;2023-07-20T13:22:53;28.20;87.10
4518;DHT22;2271;49.464;11.070;2023-07-20T13:25:19;28.20;85.40
4518;DHT22;2271;49.464;11.070;2023-07-20T13:27:44;27.80;83.90
4518;DHT22;2271;49.464;11.070;2023-07-20T13:30:11;27.90;82.80
4518;DHT22;2271;49.464;11.070;2023-07-20T13:32:45;27.90;81.50
4518;DHT22;2271;49.464;11.070;2023-07-20T13:35:11;28.00;83.20
4518;DHT22;2271;49.464;11.070;2023-07-20T13:37:37;28.20;81.90
4518;DHT22;2271;49.464;11.070;2023-07-20T13:40:03;28.10;81.90
4518;DHT22;2271;49.464;11.070;2023-07-20T13:42:33;28.10;82.30
4518;DHT22;2271;49.464;11.070;2023-07-20T13:44:59;28.20;81.40
4518;DHT22;2271;49.464;11.070;2023-07-20T13:47:26;28.30;80.90
4518;DHT22;2271;49.464;11.070;2023-07-20T13:49:52;28.20;77.20
4518;DHT22;2271;49.464;11.070;2023-07-20T13:52:17;28.20;78.60
4518;DHT22;2271;49.464;11.070;2023-07-20T13:54:43;28.20;80.70
4518;DHT22;2271;49.464;11.070;2023-07-20T13:57:10;28.00;90.60
4518;DHT22;2271;49.464;11.070;2023-07-20T13:59:36;27.40;88.30
4518;DHT22;2271;49.464;11.070;2023-07-20T14:02:02;27.00;87.60
4518;DHT22;2271;49.464;11.070;2023-07-20T14:04:28;26.70;87.50
4518;DHT22;2271;49.464;11.070;2023-07-20T14:06:54;26.80;85.10
4518;DHT22;2271;49.464;11.070;2023-07-20T14:09:20;26.80;86.60
4518;DHT22;2271;49.464;11.070;2023-07-20T14:11:45;26.70;86.10
4518;DHT22;2271;49.464;11.070;2023-07-20T14:14:11;26.40;86.10
4518;DHT22;2271;49.464;11.070;2023-07-20T14:16:37;26.40;86.20
4518;DHT22;2271;49.464;11.070;2023-07-20T14:19:02;26.40;86.50
4518;DHT22;2271;49.464;11.070;2023-07-20T14:21:30;26.40;85.30
4518;DHT22;2271;49.464;11.070;2023-07-20T14:23:56;26.40;86.90
4518;DHT22;2271;49.464;11.070;2023-07-20T14:26:23;26.30;82.10
4518;DHT22;2271;49.464;11.070;2023-07-20T14:28:49;26.30;85.10
4518;DHT22;2271;49.464;11.070;2023-07-20T14:31:15;26.20;84.50
4518;DHT22;2271;49.464;11.070;2023-07-20T14:33:40;26.20;85.60
4518;DHT22;2271;49.464;11.070;2023-07-20T14:36:06;26.20;84.90
4518;DHT22;2271;49.464;11.070;2023-07-20T14:38:33;26.10;84.40
4518;DHT22;2271;49.464;11.070;2023-07-20T14:40:59;26.20;86.70
4518;DHT22;2271;49.464;11.070;2023-07-20T14:43:25;26.30;85.90
4518;DHT22;2271;49.464;11.070;2023-07-20T14:45:51;26.40;85.50
4518;DHT22;2271;49.464;11.070;2023-07-20T14:48:16;26.60;85.90
4518;DHT22;2271;49.464;11.070;2023-07-20T14:50:42;26.70;85.90
4518;DHT22;2271;49.464;11.070;2023-07-20T14:53:11;26.50;84.60
4518;DHT22;2271;49.464;11.070;2023-07-20T14:55:37;26.40;85.00
4518;DHT22;2271;49.464;11.070;2023-07-20T14:58:03;26.40;85.30
4518;DHT22;2271;49.464;11.070;2023-07-20T15:00:28;26.30;84.90
4518;DHT22;2271;49.464;11.070;2023-07-20T15:02:55;26.10;85.30
4518;DHT22;2271;49.464;11.070;2023-07-20T15:05:22;26.00;84.70
4518;DHT22;2271;49.464;11.070;2023-07-20T15:07:48;26.10;84.90
4518;DHT22;2271;49.464;11.070;2023-07-20T15:10:13;26.30;85.80
4518;DHT22;2271;49.464;11.070;2023-07-20T15:12:39;26.30;85.20
4518;DHT22;2271;49.464;11.070;2023-07-20T15:15:12;26.30;84.70
4518;DHT22;2271;49.464;11.070;2023-07-20T15:17:39;26.20;84.60
4518;DHT22;2271;49.464;11.070;2023-07-20T15:20:06;26.20;85.00
4518;DHT22;2271;49.464;11.070;2023-07-20T15:22:33;26.30;83.30
4518;DHT22;2271;49.464;11.070;2023-07-20T15:24:59;26.30;83.90
4518;DHT22;2271;49.464;11.070;2023-07-20T15:27:24;26.30;83.70
4518;DHT22;2271;49.464;11.070;2023-07-20T15:29:50;26.40;84.10
4518;DHT22;2271;49.464;11.070;2023-07-20T15:32:17;26.40;84.00
4518;DHT22;2271;49.464;11.070;2023-07-20T15:34:44;26.40;83.50
4518;DHT22;2271;49.464;11.070;2023-07-20T15:37:10;26.50;84.60
4518;DHT22;2271;49.464;11.070;2023-07-20T15:39:36;26.50;85.40
4518;DHT22;2271;49.464;11.070;2023-07-20T15:42:02;26.50;86.10
4518;DHT22;2271;49.464;11.070;2023-07-20T15:44:28;26.50;85.90
4518;DHT22;2271;49.464;11.070;2023-07-20T15:46:54;26.40;86.10
4518;DHT22;2271;49.464;11.070;2023-07-20T15:49:20;26.50;86.30
4518;DHT22;2271;49.464;11.070;2023-07-20T15:51:45;26.50;86.10
4518;DHT22;2271;49.464;11.070;2023-07-20T15:54:12;26.50;86.70
4518;DHT22;2271;49.464;11.070;2023-07-20T15:56:39;26.60;86.90
4518;DHT22;2271;49.464;11.070;2023-07-20T15:59:05;26.60;84.80
4518;DHT22;2271;49.464;11.070;2023-07-20T16:01:31;26.60;87.70